createdAt,value
2016-07-01T00:00:59.616Z,0
2016-07-01T00:01:59.012Z,0
2016-07-01T00:02:59.871Z,0
2016-07-01T00:03:59.066Z,0
2016-07-01T00:04:59.082Z,0
2016-07-01T00:05:59.751Z,0
2016-07-01T00:06:59.327Z,0
2016-07-01T00:08:00.413Z,0
2016-07-01T00:08:59.807Z,0
2016-07-01T00:09:58.610Z,0
2016-07-01T00:10:59.272Z,0
2016-07-01T00:11:59.299Z,0
2016-07-01T00:12:59.925Z,0
2016-07-01T00:13:59.338Z,0
2016-07-01T00:14:59.994Z,0
2016-07-01T00:15:59.412Z,0
2016-07-01T00:16:59.414Z,0
2016-07-01T00:17:58.818Z,0
2016-07-01T00:19:00.071Z,0
2016-07-01T00:20:00.083Z,0
2016-07-01T00:20:59.495Z,0
2016-07-01T00:21:59.542Z,0
2016-07-01T00:22:58.931Z,0
2016-07-01T00:23:59.619Z,0
2016-07-01T00:25:00.220Z,0
2016-07-01T00:26:00.887Z,0
2016-07-01T00:27:00.266Z,0
2016-07-01T00:27:59.707Z,0
2016-07-01T00:28:59.721Z,0
2016-07-01T00:29:59.163Z,0
2016-07-01T00:31:00.383Z,0
2016-07-01T00:32:00.442Z,0
2016-07-01T00:32:59.842Z,0
2016-07-01T00:34:00.479Z,0
2016-07-01T00:35:00.527Z,0
2016-07-01T00:35:59.306Z,0
2016-07-01T00:37:01.216Z,0
2016-07-01T00:38:00.597Z,0
2016-07-01T00:38:59.359Z,0
2016-07-01T00:40:00.632Z,0
2016-07-01T00:41:00.081Z,0
2016-07-01T00:42:00.092Z,0
2016-07-01T00:42:59.516Z,0
2016-07-01T00:44:00.787Z,0
2016-07-01T00:45:00.785Z,0
2016-07-01T00:46:00.178Z,0
2016-07-01T00:47:01.453Z,0
2016-07-01T00:48:00.885Z,0
2016-07-01T00:48:59.679Z,0
2016-07-01T00:50:00.914Z,0
2016-07-01T00:50:59.712Z,0
2016-07-01T00:52:00.558Z,0
2016-07-01T00:53:00.994Z,0
2016-07-01T00:53:59.787Z,0
2016-07-01T00:55:00.424Z,0
2016-07-01T00:56:01.098Z,0
2016-07-01T00:56:59.883Z,0
2016-07-01T00:58:01.149Z,0
2016-07-01T00:59:01.173Z,0
2016-07-01T00:59:59.965Z,0
2016-07-01T01:00:59.983Z,0
2016-07-01T01:02:01.883Z,0
2016-07-01T01:03:00.041Z,0
2016-07-01T01:04:00.672Z,0
2016-07-01T01:05:00.103Z,0
2016-07-01T01:06:01.389Z,0
2016-07-01T01:07:01.376Z,0
2016-07-01T01:08:00.184Z,0
2016-07-01T01:09:00.822Z,0
2016-07-01T01:10:01.471Z,0
2016-07-01T01:11:00.880Z,0
2016-07-01T01:12:01.517Z,0
2016-07-01T01:13:00.919Z,0
2016-07-01T01:14:02.199Z,0
2016-07-01T01:15:01.612Z,0
2016-07-01T01:16:01.635Z,0
2016-07-01T01:17:01.034Z,0
2016-07-01T01:18:01.070Z,0
2016-07-01T01:19:02.314Z,0
2016-07-01T01:20:01.145Z,0
2016-07-01T01:21:01.750Z,0
2016-07-01T01:22:00.569Z,0
2016-07-01T01:23:01.179Z,0
2016-07-01T01:24:01.846Z,0
2016-07-01T01:25:00.620Z,0
2016-07-01T01:26:01.283Z,0
2016-07-01T01:27:01.280Z,0
2016-07-01T01:28:01.956Z,0
2016-07-01T01:29:01.366Z,0
2016-07-01T01:30:02.008Z,0
2016-07-01T01:31:01.389Z,0
2016-07-01T01:32:02.656Z,0
2016-07-01T01:33:02.735Z,0
2016-07-01T01:34:01.522Z,0
2016-07-01T01:35:02.743Z,0
2016-07-01T01:36:01.546Z,0
2016-07-01T01:37:01.579Z,0
2016-07-01T01:38:01.034Z,0
2016-07-01T01:39:02.839Z,0
2016-07-01T01:40:02.243Z,0
2016-07-01T01:41:01.658Z,0
2016-07-01T01:42:02.319Z,0
2016-07-01T01:43:01.733Z,0
2016-07-01T01:44:01.765Z,0
2016-07-01T01:45:03.089Z,0
2016-07-01T01:46:02.446Z,0
2016-07-01T01:47:02.457Z,0
2016-07-01T01:48:02.479Z,0
2016-07-01T01:49:02.503Z,0
2016-07-01T01:50:03.154Z,0
2016-07-01T01:51:02.552Z,0
2016-07-01T01:52:01.954Z,0
2016-07-01T01:53:01.355Z,0
2016-07-01T01:54:02.026Z,0
2016-07-01T01:55:02.058Z,0
2016-07-01T01:56:02.078Z,0
2016-07-01T01:57:02.103Z,0
2016-07-01T01:58:02.750Z,0
2016-07-01T01:59:03.387Z,0
2016-07-01T02:00:03.422Z,0
2016-07-01T02:01:02.850Z,0
2016-07-01T02:02:02.870Z,0
2016-07-01T02:03:02.867Z,0
2016-07-01T02:04:02.517Z,0
2016-07-01T02:05:03.537Z,0
2016-07-01T02:06:02.965Z,0
2016-07-01T02:07:02.373Z,0
2016-07-01T02:08:03.040Z,0
2016-07-01T02:09:01.819Z,0
2016-07-01T02:10:03.067Z,0
2016-07-01T02:11:03.097Z,0
2016-07-01T02:12:03.777Z,0
2016-07-01T02:13:03.151Z,0
2016-07-01T02:14:03.189Z,0
2016-07-01T02:15:03.818Z,0
2016-07-01T02:16:03.250Z,0
2016-07-01T02:17:01.998Z,0
2016-07-01T02:18:03.892Z,0
2016-07-01T02:19:02.753Z,0
2016-07-01T02:20:02.103Z,0
2016-07-01T02:21:03.386Z,0
2016-07-01T02:22:03.404Z,0
2016-07-01T02:23:02.780Z,0
2016-07-01T02:24:02.189Z,0
2016-07-01T02:25:02.836Z,0
2016-07-01T02:26:02.263Z,0
2016-07-01T02:27:03.507Z,0
2016-07-01T02:28:02.947Z,0
2016-07-01T02:29:03.589Z,0
2016-07-01T02:30:03.598Z,0
2016-07-01T02:31:03.011Z,0
2016-07-01T02:32:02.423Z,0
2016-07-01T02:33:03.058Z,0
2016-07-01T02:34:03.721Z,0
2016-07-01T02:35:02.486Z,0
2016-07-01T02:36:04.378Z,0
2016-07-01T02:37:02.538Z,0
2016-07-01T02:38:03.861Z,0
2016-07-01T02:39:03.827Z,0
2016-07-01T02:40:03.849Z,0
2016-07-01T02:41:02.642Z,0
2016-07-01T02:42:03.307Z,0
2016-07-01T02:43:03.963Z,0
2016-07-01T02:44:04.623Z,0
2016-07-01T02:45:03.385Z,0
2016-07-01T02:46:03.412Z,0
2016-07-01T02:47:04.072Z,0
2016-07-01T02:48:03.463Z,0
2016-07-01T02:49:03.465Z,0
2016-07-01T02:50:02.882Z,0
2016-07-01T02:51:02.907Z,0
2016-07-01T02:52:02.929Z,0
2016-07-01T02:53:04.211Z,0
2016-07-01T02:54:02.432Z,0
2016-07-01T02:55:04.866Z,0
2016-07-01T02:56:04.282Z,0
2016-07-01T02:57:04.306Z,0
2016-07-01T02:58:04.322Z,0
2016-07-01T02:59:04.341Z,0
2016-07-01T03:00:03.142Z,0
2016-07-01T03:01:03.782Z,0
2016-07-01T03:02:04.452Z,0
2016-07-01T03:03:04.457Z,0
2016-07-01T03:04:03.889Z,0
2016-07-01T03:05:03.894Z,0
2016-07-01T03:06:04.585Z,0
2016-07-01T03:07:03.963Z,0
2016-07-01T03:08:03.412Z,0
2016-07-01T03:09:04.668Z,0
2016-07-01T03:10:03.470Z,0
2016-07-01T03:11:04.724Z,0
2016-07-01T03:12:04.725Z,0
2016-07-01T03:13:04.135Z,0
2016-07-01T03:14:05.366Z,0
2016-07-01T03:15:04.197Z,0
2016-07-01T03:16:04.177Z,0
2016-07-01T03:17:04.851Z,0
2016-07-01T03:18:04.237Z,0
2016-07-01T03:19:04.873Z,0
2016-07-01T03:20:03.686Z,0
2016-07-01T03:21:04.323Z,0
2016-07-01T03:22:04.436Z,0
2016-07-01T03:23:05.614Z,0
2016-07-01T03:24:05.017Z,0
2016-07-01T03:25:03.175Z,0
2016-07-01T03:26:04.464Z,0
2016-07-01T03:27:05.106Z,0
2016-07-01T03:28:03.911Z,0
2016-07-01T03:29:05.149Z,0
2016-07-01T03:30:05.157Z,0
2016-07-01T03:31:04.568Z,0
2016-07-01T03:32:05.820Z,0
2016-07-01T03:33:03.994Z,0
2016-07-01T03:34:04.652Z,0
2016-07-01T03:35:05.290Z,0
2016-07-01T03:36:05.339Z,0
2016-07-01T03:37:04.109Z,0
2016-07-01T03:38:05.380Z,0
2016-07-01T03:39:05.450Z,0
2016-07-01T03:40:05.475Z,0
2016-07-01T03:41:05.455Z,0
2016-07-01T03:42:05.507Z,0
2016-07-01T03:43:04.888Z,0
2016-07-01T03:44:04.931Z,0
2016-07-01T03:45:04.302Z,0
2016-07-01T03:46:06.205Z,0
2016-07-01T03:47:05.615Z,0
2016-07-01T03:48:05.635Z,0
2016-07-01T03:49:05.026Z,0
2016-07-01T03:50:05.061Z,0
2016-07-01T03:51:05.769Z,0
2016-07-01T03:52:05.193Z,0
2016-07-01T03:53:04.647Z,0
2016-07-01T03:54:03.915Z,0
2016-07-01T03:55:04.568Z,0
2016-07-01T03:56:06.088Z,0
2016-07-01T03:57:05.856Z,0
2016-07-01T03:58:06.534Z,0
2016-07-01T03:59:04.079Z,0
2016-07-01T04:00:06.578Z,0
2016-07-01T04:01:05.974Z,0
2016-07-01T04:02:05.394Z,0
2016-07-01T04:03:04.761Z,0
2016-07-01T04:04:05.420Z,0
2016-07-01T04:05:06.699Z,0
2016-07-01T04:06:05.482Z,0
2016-07-01T04:07:06.743Z,0
2016-07-01T04:08:05.530Z,0
2016-07-01T04:09:06.202Z,0
2016-07-01T04:10:05.580Z,0
2016-07-01T04:11:05.645Z,0
2016-07-01T04:12:05.640Z,0
2016-07-01T04:13:05.670Z,0
2016-07-01T04:14:05.689Z,0
2016-07-01T04:15:05.696Z,0
2016-07-01T04:16:05.755Z,0
2016-07-01T04:17:05.175Z,0
2016-07-01T04:18:07.029Z,0
2016-07-01T04:19:06.417Z,0
2016-07-01T04:20:06.506Z,0
2016-07-01T04:21:06.465Z,0
2016-07-01T04:22:05.269Z,0
2016-07-01T04:23:05.909Z,0
2016-07-01T04:24:06.584Z,5
2016-07-01T04:25:05.337Z,5
2016-07-01T04:26:05.998Z,5
2016-07-01T04:27:05.397Z,5
2016-07-01T04:28:06.049Z,0
2016-07-01T04:29:06.061Z,0
2016-07-01T04:30:06.707Z,0
2016-07-01T04:31:07.361Z,0
2016-07-01T04:32:05.530Z,0
2016-07-01T04:33:06.165Z,0
2016-07-01T04:34:05.583Z,0
2016-07-01T04:35:06.849Z,0
2016-07-01T04:36:07.547Z,0
2016-07-01T04:37:05.679Z,0
2016-07-01T04:38:06.341Z,0
2016-07-01T04:39:05.111Z,0
2016-07-01T04:40:06.985Z,0
2016-07-01T04:41:06.991Z,0
2016-07-01T04:42:05.798Z,0
2016-07-01T04:43:06.435Z,0
2016-07-01T04:44:07.683Z,0
2016-07-01T04:45:07.111Z,0
2016-07-01T04:46:06.533Z,0
2016-07-01T04:47:05.911Z,0
2016-07-01T04:48:07.172Z,0
2016-07-01T04:49:05.354Z,0
2016-07-01T04:50:07.228Z,0
2016-07-01T04:51:06.026Z,0
2016-07-01T04:52:06.690Z,0
2016-07-01T04:53:06.056Z,0
2016-07-01T04:54:06.125Z,0
2016-07-01T04:55:06.747Z,0
2016-07-01T04:56:06.160Z,0
2016-07-01T04:57:07.409Z,0
2016-07-01T04:58:06.811Z,0
2016-07-01T04:59:07.446Z,0
2016-07-01T05:00:07.500Z,0
2016-07-01T05:01:07.497Z,0
2016-07-01T05:02:07.567Z,0
2016-07-01T05:03:06.960Z,0
2016-07-01T05:04:07.010Z,0
2016-07-01T05:05:07.612Z,0
2016-07-01T05:06:07.658Z,5
2016-07-01T05:07:07.066Z,5
2016-07-01T05:08:07.063Z,5
2016-07-01T05:09:08.567Z,5
2016-07-01T05:10:07.759Z,5
2016-07-01T05:11:05.936Z,5
2016-07-01T05:12:07.809Z,5
2016-07-01T05:13:07.209Z,5
2016-07-01T05:14:07.863Z,5
2016-07-01T05:15:06.644Z,5
2016-07-01T05:16:07.274Z,5
2016-07-01T05:17:07.903Z,5
2016-07-01T05:18:07.314Z,5
2016-07-01T05:19:07.332Z,5
2016-07-01T05:20:06.129Z,5
2016-07-01T05:21:07.403Z,5
2016-07-01T05:22:06.182Z,5
2016-07-01T05:23:07.462Z,5
2016-07-01T05:24:08.089Z,5
2016-07-01T05:25:08.119Z,5
2016-07-01T05:26:07.534Z,5
2016-07-01T05:27:07.546Z,5
2016-07-01T05:28:07.576Z,5
2016-07-01T05:29:06.985Z,5
2016-07-01T05:30:07.013Z,5
2016-07-01T05:31:07.647Z,5
2016-07-01T05:32:07.685Z,5
2016-07-01T05:33:08.949Z,5
2016-07-01T05:34:07.117Z,5
2016-07-01T05:35:07.763Z,5
2016-07-01T05:36:08.403Z,5
2016-07-01T05:37:08.425Z,5
2016-07-01T05:38:08.498Z,5
2016-07-01T05:39:09.108Z,5
2016-07-01T05:40:08.496Z,5
2016-07-01T05:41:08.520Z,5
2016-07-01T05:42:07.331Z,5
2016-07-01T05:43:07.329Z,5
2016-07-01T05:44:07.983Z,5
2016-07-01T05:45:08.627Z,5
2016-07-01T05:46:07.473Z,5
2016-07-01T05:47:08.104Z,5
2016-07-01T05:48:07.491Z,5
2016-07-01T05:49:07.528Z,5
2016-07-01T05:50:09.376Z,5
2016-07-01T05:51:08.195Z,5
2016-07-01T05:52:08.831Z,5
2016-07-01T05:53:08.220Z,5
2016-07-01T05:54:08.869Z,5
2016-07-01T05:55:07.650Z,5
2016-07-01T05:56:08.911Z,5
2016-07-01T05:57:08.354Z,5
2016-07-01T05:58:07.710Z,5
2016-07-01T05:59:07.744Z,5
2016-07-01T06:00:08.388Z,5
2016-07-01T06:01:09.033Z,5
2016-07-01T06:02:08.493Z,5
2016-07-01T06:03:08.491Z,5
2016-07-01T06:04:09.110Z,5
2016-07-01T06:05:09.775Z,5
2016-07-01T06:06:09.178Z,5
2016-07-01T06:07:09.193Z,5
2016-07-01T06:08:09.836Z,5
2016-07-01T06:09:07.402Z,5
2016-07-01T06:10:09.269Z,5
2016-07-01T06:11:08.952Z,5
2016-07-01T06:12:09.319Z,5
2016-07-01T06:13:08.764Z,5
2016-07-01T06:14:09.983Z,5
2016-07-01T06:15:10.011Z,5
2016-07-01T06:16:10.087Z,5
2016-07-01T06:17:07.611Z,5
2016-07-01T06:18:08.889Z,5
2016-07-01T06:19:09.521Z,5
2016-07-01T06:20:10.174Z,5
2016-07-01T06:21:09.641Z,5
2016-07-01T06:22:09.599Z,5
2016-07-01T06:23:09.593Z,5
2016-07-01T06:24:08.401Z,5
2016-07-01T06:25:09.253Z,10
2016-07-01T06:26:09.268Z,10
2016-07-01T06:27:09.289Z,10
2016-07-01T06:28:09.348Z,10
2016-07-01T06:29:09.770Z,10
2016-07-01T06:30:09.170Z,10
2016-07-01T06:31:09.218Z,10
2016-07-01T06:32:09.835Z,10
2016-07-01T06:33:09.886Z,10
2016-07-01T06:34:08.670Z,10
2016-07-01T06:35:09.935Z,5
2016-07-01T06:36:08.715Z,5
2016-07-01T06:37:09.356Z,5
2016-07-01T06:38:10.045Z,5
2016-07-01T06:39:08.784Z,5
2016-07-01T06:40:08.854Z,5
2016-07-01T06:41:08.842Z,5
2016-07-01T06:42:10.113Z,10
2016-07-01T06:43:10.177Z,10
2016-07-01T06:44:10.802Z,10
2016-07-01T06:45:09.559Z,10
2016-07-01T06:46:09.601Z,10
2016-07-01T06:47:09.639Z,10
2016-07-01T06:48:09.029Z,10
2016-07-01T06:49:09.113Z,10
2016-07-01T06:50:09.686Z,10
2016-07-01T06:51:10.342Z,10
2016-07-01T06:52:10.982Z,10
2016-07-01T06:53:10.399Z,10
2016-07-01T06:54:09.806Z,5
2016-07-01T06:55:10.443Z,5
2016-07-01T06:56:10.483Z,5
2016-07-01T06:57:09.871Z,5
2016-07-01T06:58:10.530Z,5
2016-07-01T06:59:10.544Z,5
2016-07-01T07:00:11.202Z,5
2016-07-01T07:01:10.584Z,5
2016-07-01T07:02:10.600Z,5
2016-07-01T07:03:08.817Z,5
2016-07-01T07:04:11.278Z,10
2016-07-01T07:05:09.472Z,10
2016-07-01T07:06:10.715Z,10
2016-07-01T07:07:10.766Z,10
2016-07-01T07:08:10.215Z,10
2016-07-01T07:09:10.856Z,10
2016-07-01T07:10:10.875Z,10
2016-07-01T07:11:09.023Z,10
2016-07-01T07:12:10.280Z,10
2016-07-01T07:13:11.933Z,10
2016-07-01T07:14:11.131Z,10
2016-07-01T07:15:11.083Z,10
2016-07-01T07:16:10.389Z,15
2016-07-01T07:17:11.113Z,15
2016-07-01T07:18:11.135Z,10
2016-07-01T07:19:10.462Z,10
2016-07-01T07:20:11.145Z,10
2016-07-01T07:21:09.925Z,10
2016-07-01T07:22:11.151Z,10
2016-07-01T07:23:10.550Z,10
2016-07-01T07:24:11.214Z,10
2016-07-01T07:25:10.627Z,10
2016-07-01T07:26:11.948Z,10
2016-07-01T07:27:10.689Z,5
2016-07-01T07:28:11.372Z,5
2016-07-01T07:29:10.260Z,5
2016-07-01T07:30:10.303Z,5
2016-07-01T07:31:10.287Z,5
2016-07-01T07:32:10.911Z,5
2016-07-01T07:33:10.475Z,5
2016-07-01T07:34:12.181Z,5
2016-07-01T07:35:11.128Z,5
2016-07-01T07:36:11.712Z,5
2016-07-01T07:37:12.285Z,5
2016-07-01T07:38:11.725Z,5
2016-07-01T07:39:12.274Z,5
2016-07-01T07:40:11.173Z,5
2016-07-01T07:41:11.171Z,5
2016-07-01T07:42:11.178Z,10
2016-07-01T07:43:10.492Z,10
2016-07-01T07:44:11.767Z,10
2016-07-01T07:45:11.816Z,10
2016-07-01T07:46:11.799Z,10
2016-07-01T07:47:11.197Z,10
2016-07-01T07:48:11.222Z,10
2016-07-01T07:49:11.252Z,10
2016-07-01T07:50:11.902Z,10
2016-07-01T07:51:10.798Z,10
2016-07-01T07:52:10.811Z,10
2016-07-01T07:53:12.659Z,10
2016-07-01T07:54:12.004Z,10
2016-07-01T07:55:11.498Z,10
2016-07-01T07:56:12.153Z,10
2016-07-01T07:57:11.475Z,10
2016-07-01T07:58:11.561Z,10
2016-07-01T07:59:10.901Z,10
2016-07-01T08:00:12.248Z,10
2016-07-01T08:01:12.879Z,10
2016-07-01T08:02:11.716Z,10
2016-07-01T08:03:11.659Z,10
2016-07-01T08:04:11.714Z,10
2016-07-01T08:05:11.855Z,10
2016-07-01T08:06:11.132Z,10
2016-07-01T08:07:11.727Z,10
2016-07-01T08:08:11.775Z,10
2016-07-01T08:09:12.419Z,10
2016-07-01T08:10:12.488Z,10
2016-07-01T08:11:11.849Z,10
2016-07-01T08:12:12.490Z,10
2016-07-01T08:13:11.290Z,10
2016-07-01T08:14:11.935Z,10
2016-07-01T08:15:12.586Z,10
2016-07-01T08:16:12.691Z,10
2016-07-01T08:17:11.401Z,10
2016-07-01T08:18:12.670Z,10
2016-07-01T08:19:12.092Z,10
2016-07-01T08:20:12.758Z,15
2016-07-01T08:21:12.745Z,25
2016-07-01T08:22:11.547Z,15
2016-07-01T08:23:12.811Z,15
2016-07-01T08:24:12.903Z,15
2016-07-01T08:25:12.892Z,10
2016-07-01T08:26:12.287Z,10
2016-07-01T08:27:13.052Z,10
2016-07-01T08:28:12.929Z,10
2016-07-01T08:29:11.179Z,10
2016-07-01T08:30:13.039Z,10
2016-07-01T08:31:13.629Z,10
2016-07-01T08:32:12.442Z,10
2016-07-01T08:33:13.067Z,10
2016-07-01T08:34:12.477Z,10
2016-07-01T08:35:13.806Z,10
2016-07-01T08:36:13.178Z,10
2016-07-01T08:37:12.575Z,10
2016-07-01T08:38:12.623Z,10
2016-07-01T08:39:12.602Z,15
2016-07-01T08:40:12.642Z,15
2016-07-01T08:41:13.478Z,15
2016-07-01T08:42:12.796Z,15
2016-07-01T08:43:13.410Z,15
2016-07-01T08:44:13.594Z,15
2016-07-01T08:45:13.607Z,15
2016-07-01T08:46:13.483Z,15
2016-07-01T08:47:13.514Z,15
2016-07-01T08:48:13.017Z,15
2016-07-01T08:49:13.021Z,15
2016-07-01T08:50:11.707Z,20
2016-07-01T08:51:13.681Z,20
2016-07-01T08:52:13.694Z,20
2016-07-01T08:53:14.276Z,20
2016-07-01T08:54:14.278Z,20
2016-07-01T08:55:13.086Z,25
2016-07-01T08:56:14.450Z,25
2016-07-01T08:57:13.881Z,30
2016-07-01T08:58:14.483Z,25
2016-07-01T08:59:12.570Z,25
2016-07-01T09:00:12.609Z,20
2016-07-01T09:01:13.257Z,20
2016-07-01T09:02:13.906Z,25
2016-07-01T09:03:13.966Z,20
2016-07-01T09:04:12.726Z,15
2016-07-01T09:05:13.437Z,20
2016-07-01T09:06:14.054Z,25
2016-07-01T09:07:13.447Z,30
2016-07-01T09:08:14.134Z,20
2016-07-01T09:09:14.214Z,20
2016-07-01T09:10:13.853Z,30
2016-07-01T09:11:14.704Z,30
2016-07-01T09:12:13.560Z,20
2016-07-01T09:13:13.613Z,20
2016-07-01T09:14:13.112Z,20
2016-07-01T09:15:14.375Z,20
2016-07-01T09:16:14.430Z,20
2016-07-01T09:17:13.953Z,20
2016-07-01T09:18:14.398Z,20
2016-07-01T09:19:13.331Z,20
2016-07-01T09:20:15.059Z,20
2016-07-01T09:21:14.559Z,20
2016-07-01T09:22:14.565Z,20
2016-07-01T09:23:14.546Z,20
2016-07-01T09:24:14.011Z,20
2016-07-01T09:25:12.746Z,20
2016-07-01T09:26:13.472Z,20
2016-07-01T09:27:13.418Z,20
2016-07-01T09:28:14.085Z,25
2016-07-01T09:29:14.096Z,20
2016-07-01T09:30:15.346Z,20
2016-07-01T09:31:13.697Z,20
2016-07-01T09:32:14.801Z,20
2016-07-01T09:33:14.228Z,20
2016-07-01T09:34:13.677Z,20
2016-07-01T09:35:14.317Z,20
2016-07-01T09:36:15.134Z,20
2016-07-01T09:37:13.190Z,10
2016-07-01T09:38:15.780Z,20
2016-07-01T09:39:14.657Z,10
2016-07-01T09:40:14.558Z,10
2016-07-01T09:41:13.378Z,20
2016-07-01T09:42:14.706Z,20
2016-07-01T09:43:14.162Z,20
2016-07-01T09:44:14.030Z,25
2016-07-01T09:45:14.169Z,25
2016-07-01T09:46:14.869Z,25
2016-07-01T09:47:15.453Z,20
2016-07-01T09:48:14.356Z,20
2016-07-01T09:49:14.245Z,25
2016-07-01T09:50:14.291Z,30
2016-07-01T09:51:16.399Z,25
2016-07-01T09:52:14.898Z,30
2016-07-01T09:53:16.145Z,35
2016-07-01T09:54:14.948Z,25
2016-07-01T09:55:16.307Z,25
2016-07-01T09:56:14.938Z,25
2016-07-01T09:57:14.955Z,25
2016-07-01T09:58:15.615Z,25
2016-07-01T09:59:15.032Z,30
2016-07-01T10:00:16.435Z,25
2016-07-01T10:01:15.727Z,35
2016-07-01T10:02:15.728Z,50
2016-07-01T10:03:14.525Z,30
2016-07-01T10:04:15.803Z,35
2016-07-01T10:05:14.575Z,30
2016-07-01T10:06:14.653Z,35
2016-07-01T10:07:15.957Z,25
2016-07-01T10:08:14.710Z,35
2016-07-01T10:09:15.979Z,35
2016-07-01T10:10:14.730Z,40
2016-07-01T10:11:15.373Z,45
2016-07-01T10:12:15.517Z,45
2016-07-01T10:13:15.187Z,50
2016-07-01T10:14:16.324Z,50
2016-07-01T10:15:16.387Z,45
2016-07-01T10:16:16.342Z,20
2016-07-01T10:17:16.964Z,40
2016-07-01T10:18:16.963Z,30
2016-07-01T10:19:15.812Z,25
2016-07-01T10:20:15.125Z,20
2016-07-01T10:21:16.398Z,20
2016-07-01T10:22:16.411Z,25
2016-07-01T10:23:16.530Z,45
2016-07-01T10:24:15.945Z,60
2016-07-01T10:25:15.362Z,65
2016-07-01T10:26:16.563Z,60
2016-07-01T10:27:16.554Z,60
2016-07-01T10:28:16.005Z,60
2016-07-01T10:29:16.571Z,65
2016-07-01T10:30:16.627Z,70
2016-07-01T10:31:17.279Z,70
2016-07-01T10:32:16.057Z,70
2016-07-01T10:33:16.765Z,70
2016-07-01T10:34:17.389Z,50
2016-07-01T10:35:16.165Z,55
2016-07-01T10:36:17.421Z,60
2016-07-01T10:37:16.871Z,55
2016-07-01T10:38:16.981Z,55
2016-07-01T10:39:16.310Z,50
2016-07-01T10:40:16.974Z,45
2016-07-01T10:41:15.854Z,45
2016-07-01T10:42:16.396Z,45
2016-07-01T10:43:17.049Z,65
2016-07-01T10:44:16.542Z,75
2016-07-01T10:45:16.513Z,60
2016-07-01T10:46:17.154Z,65
2016-07-01T10:47:17.218Z,75
2016-07-01T10:48:16.021Z,55
2016-07-01T10:49:17.895Z,60
2016-07-01T10:50:16.058Z,50
2016-07-01T10:51:16.750Z,45
2016-07-01T10:52:16.339Z,30
2016-07-01T10:53:16.794Z,20
2016-07-01T10:54:16.815Z,20
2016-07-01T10:55:16.844Z,25
2016-07-01T10:56:16.879Z,40
2016-07-01T10:57:16.947Z,45
2016-07-01T10:58:16.945Z,45
2016-07-01T10:59:16.865Z,35
2016-07-01T11:00:17.025Z,30
2016-07-01T11:01:17.725Z,25
2016-07-01T11:02:17.089Z,25
2016-07-01T11:03:17.108Z,30
2016-07-01T11:04:17.749Z,25
2016-07-01T11:05:17.887Z,35
2016-07-01T11:06:17.199Z,40
2016-07-01T11:07:17.257Z,25
2016-07-01T11:08:16.665Z,30
2016-07-01T11:09:17.987Z,45
2016-07-01T11:10:17.355Z,45
2016-07-01T11:11:18.003Z,25
2016-07-01T11:12:17.406Z,45
2016-07-01T11:13:18.051Z,55
2016-07-01T11:14:17.523Z,65
2016-07-01T11:15:18.161Z,70
2016-07-01T11:16:18.159Z,70
2016-07-01T11:17:18.804Z,75
2016-07-01T11:18:18.921Z,80
2016-07-01T11:19:17.012Z,80
2016-07-01T11:20:17.752Z,60
2016-07-01T11:21:17.791Z,60
2016-07-01T11:22:18.993Z,55
2016-07-01T11:23:18.480Z,50
2016-07-01T11:24:18.491Z,50
2016-07-01T11:25:17.984Z,45
2016-07-01T11:26:18.186Z,40
2016-07-01T11:27:18.542Z,40
2016-07-01T11:28:18.063Z,35
2016-07-01T11:29:17.537Z,35
2016-07-01T11:30:18.724Z,30
2016-07-01T11:31:19.333Z,25
2016-07-01T11:32:19.325Z,20
2016-07-01T11:33:18.137Z,20
2016-07-01T11:34:18.202Z,25
2016-07-01T11:35:18.820Z,30
2016-07-01T11:36:17.804Z,35
2016-07-01T11:37:18.928Z,40
2016-07-01T11:38:18.904Z,50
2016-07-01T11:39:19.237Z,65
2016-07-01T11:40:19.436Z,100
2016-07-01T11:41:18.588Z,105
2016-07-01T11:42:18.647Z,90
2016-07-01T11:43:17.984Z,100
2016-07-01T11:44:19.119Z,100
2016-07-01T11:45:18.587Z,100
2016-07-01T11:46:17.961Z,100
2016-07-01T11:47:19.935Z,90
2016-07-01T11:48:18.646Z,90
2016-07-01T11:49:18.083Z,85
2016-07-01T11:50:18.742Z,85
2016-07-01T11:51:19.982Z,85
2016-07-01T11:52:18.176Z,80
2016-07-01T11:53:18.832Z,50
2016-07-01T11:54:19.474Z,45
2016-07-01T11:55:19.535Z,45
2016-07-01T11:56:19.552Z,40
2016-07-01T11:57:18.952Z,40
2016-07-01T11:58:19.607Z,40
2016-07-01T11:59:20.377Z,35
2016-07-01T12:00:19.688Z,40
2016-07-01T12:01:19.724Z,50
2016-07-01T12:02:19.150Z,60
2016-07-01T12:03:18.548Z,75
2016-07-01T12:04:20.474Z,85
2016-07-01T12:05:18.643Z,95
2016-07-01T12:06:18.046Z,105
2016-07-01T12:07:18.746Z,105
2016-07-01T12:08:19.989Z,90
2016-07-01T12:09:18.811Z,75
2016-07-01T12:10:18.171Z,70
2016-07-01T12:11:20.103Z,65
2016-07-01T12:12:18.884Z,70
2016-07-01T12:13:20.188Z,65
2016-07-01T12:14:20.839Z,80
2016-07-01T12:15:20.246Z,70
2016-07-01T12:16:19.031Z,70
2016-07-01T12:17:20.439Z,50
2016-07-01T12:18:19.757Z,40
2016-07-01T12:19:20.591Z,35
2016-07-01T12:20:19.811Z,25
2016-07-01T12:21:19.820Z,25
2016-07-01T12:22:21.219Z,25
2016-07-01T12:23:21.221Z,20
2016-07-01T12:24:20.635Z,20
2016-07-01T12:25:19.996Z,15
2016-07-01T12:26:19.994Z,20
2016-07-01T12:27:20.755Z,20
2016-07-01T12:28:20.069Z,20
2016-07-01T12:29:21.789Z,25
2016-07-01T12:30:20.168Z,25
2016-07-01T12:31:21.483Z,20
2016-07-01T12:32:20.273Z,20
2016-07-01T12:33:20.232Z,20
2016-07-01T12:34:20.971Z,20
2016-07-01T12:35:21.586Z,20
2016-07-01T12:36:21.141Z,15
2016-07-01T12:37:19.815Z,15
2016-07-01T12:38:20.498Z,20
2016-07-01T12:39:20.470Z,25
2016-07-01T12:40:20.554Z,30
2016-07-01T12:41:20.681Z,30
2016-07-01T12:42:20.663Z,30
2016-07-01T12:43:20.672Z,25
2016-07-01T12:44:21.300Z,25
2016-07-01T12:45:20.765Z,30
2016-07-01T12:46:21.424Z,30
2016-07-01T12:47:20.129Z,30
2016-07-01T12:48:21.510Z,35
2016-07-01T12:49:20.909Z,40
2016-07-01T12:50:20.266Z,45
2016-07-01T12:51:21.535Z,50
2016-07-01T12:52:22.283Z,55
2016-07-01T12:53:21.685Z,55
2016-07-01T12:54:21.668Z,60
2016-07-01T12:55:22.168Z,60
2016-07-01T12:56:21.778Z,50
2016-07-01T12:57:21.094Z,45
2016-07-01T12:58:21.146Z,40
2016-07-01T12:59:21.198Z,45
2016-07-01T13:00:21.322Z,45
2016-07-01T13:01:22.293Z,50
2016-07-01T13:02:21.280Z,55
2016-07-01T13:03:21.991Z,50
2016-07-01T13:04:21.506Z,60
2016-07-01T13:05:22.145Z,60
2016-07-01T13:06:22.044Z,70
2016-07-01T13:07:21.674Z,65
2016-07-01T13:08:21.502Z,65
2016-07-01T13:09:20.300Z,70
2016-07-01T13:10:22.204Z,70
2016-07-01T13:11:22.943Z,65
2016-07-01T13:12:22.273Z,60
2016-07-01T13:13:22.295Z,60
2016-07-01T13:14:21.719Z,55
2016-07-01T13:15:22.383Z,60
2016-07-01T13:16:23.023Z,70
2016-07-01T13:17:22.491Z,80
2016-07-01T13:18:23.080Z,100
2016-07-01T13:19:23.128Z,135
2016-07-01T13:20:23.190Z,95
2016-07-01T13:21:22.586Z,120
2016-07-01T13:22:22.012Z,90
2016-07-01T13:23:22.054Z,85
2016-07-01T13:24:22.125Z,60
2016-07-01T13:25:23.361Z,45
2016-07-01T13:26:22.795Z,55
2016-07-01T13:27:22.812Z,65
2016-07-01T13:28:23.447Z,65
2016-07-01T13:29:23.538Z,75
2016-07-01T13:30:23.557Z,75
2016-07-01T13:31:22.971Z,75
2016-07-01T13:32:23.005Z,70
2016-07-01T13:33:23.031Z,65
2016-07-01T13:34:22.553Z,60
2016-07-01T13:35:23.126Z,50
2016-07-01T13:36:23.759Z,45
2016-07-01T13:37:21.960Z,40
2016-07-01T13:38:22.085Z,30
2016-07-01T13:39:21.261Z,30
2016-07-01T13:40:21.301Z,30
2016-07-01T13:41:21.330Z,35
2016-07-01T13:42:21.458Z,40
2016-07-01T13:43:21.610Z,40
2016-07-01T13:44:22.065Z,40
2016-07-01T13:45:21.777Z,35
2016-07-01T13:46:22.140Z,30
2016-07-01T13:47:21.641Z,30
2016-07-01T13:48:21.687Z,25
2016-07-01T13:49:21.794Z,25
2016-07-01T13:50:21.769Z,25
2016-07-01T13:51:21.817Z,25
2016-07-01T13:52:21.816Z,25
2016-07-01T13:53:21.777Z,25
2016-07-01T13:54:21.879Z,25
2016-07-01T13:55:21.940Z,30
2016-07-01T13:56:21.937Z,25
2016-07-01T13:57:22.078Z,20
2016-07-01T13:58:22.098Z,20
2016-07-01T13:59:22.095Z,20
2016-07-01T14:00:22.110Z,20
2016-07-01T14:01:22.114Z,25
2016-07-01T14:02:22.182Z,25
2016-07-01T14:03:22.216Z,20
2016-07-01T14:04:22.214Z,20
2016-07-01T14:05:22.406Z,15
2016-07-01T14:06:22.249Z,15
2016-07-01T14:07:22.274Z,15
2016-07-01T14:08:22.306Z,15
2016-07-01T14:09:22.334Z,15
2016-07-01T14:10:22.373Z,15
2016-07-01T14:11:22.415Z,15
2016-07-01T14:12:22.456Z,15
2016-07-01T14:13:22.475Z,15
2016-07-01T14:14:22.515Z,15
2016-07-01T14:15:22.553Z,15
2016-07-01T14:16:22.584Z,20
2016-07-01T14:17:22.607Z,25
2016-07-01T14:18:22.662Z,35
2016-07-01T14:19:22.699Z,50
2016-07-01T14:20:22.725Z,75
2016-07-01T14:21:22.762Z,65
2016-07-01T14:22:22.795Z,65
2016-07-01T14:23:22.833Z,70
2016-07-01T14:24:22.887Z,75
2016-07-01T14:25:22.904Z,75
2016-07-01T14:26:22.948Z,80
2016-07-01T14:27:22.973Z,75
2016-07-01T14:28:23.011Z,65
2016-07-01T14:29:23.047Z,60
2016-07-01T14:30:23.076Z,55
2016-07-01T14:31:23.116Z,55